Time;durP1;ratioP1;P1;durP2;ratioP2;P2;SDS_P1;SDS_P2;PMS_P1;PMS_P2;Temp;Humidity;BMP_temperature;BMP_pressure;BME280_temperature;BME280_humidity;BME280_pressure;Samples;Min_cycle;Max_cycle;Signal;HPM_P1;HPM_P2
2022/02/04 00:23:44;;;;;;;;;17.00;15.75;;;;;-147.17;100.00;50391.25;5015784;28;51039;-65
2022/02/04 00:26:23;;;;;;;;;16.00;16.00;;;;;-147.17;100.00;50338.09;5015053;28;51845;-66
2022/02/04 00:33:46;;;;;;;;;13.50;11.75;;;;;-147.17;100.00;50373.53;5015169;28;51131;-67
2022/02/04 00:36:18;;;;;;;;;13.25;11.25;;;;;-147.17;100.00;50383.38;5001177;28;51317;-66
2022/02/04 00:38:48;;;;;;;;;15.25;14.00;;;;;-147.17;100.00;50383.38;5014712;28;51124;-65
2022/02/04 00:41:17;;;;;;;;;13.75;11.00;;;;;-147.17;100.00;50375.50;5017995;28;51232;-68
2022/02/04 00:43:44;;;;;;;;;17.75;14.00;;;;;-147.17;100.00;50363.69;5017238;28;51240;-68
2022/02/04 00:53:42;;;;;;;;;14.25;14.25;;;;;-147.17;100.00;50367.63;5012981;28;51120;-64
2022/02/04 00:56:21;;;;;;;;;15.00;14.33;;;;;-147.17;100.00;50357.78;5014854;28;51945;-66
2022/02/04 01:26:02;;;;;;;;;14.50;14.00;;;;;-147.17;100.00;50322.34;5000649;28;51205;-65
2022/02/04 01:28:28;;;;;;;;;18.75;16.00;;;;;-147.17;100.00;50332.19;5011873;28;51191;-68
2022/02/04 01:30:55;;;;;;;;;11.00;10.00;;;;;-147.17;100.00;50320.38;5013432;28;51156;-65
2022/02/04 01:33:21;;;;;;;;;13.75;11.50;;;;;-147.17;100.00;50324.31;4996281;28;51238;-63
2022/02/04 01:35:46;;;;;;;;;14.25;14.00;;;;;-147.17;100.00;50324.31;5016130;28;51106;-66
2022/02/04 01:38:12;;;;;;;;;15.50;14.75;;;;;-147.17;100.00;50324.31;5014902;28;51418;-65
2022/02/04 01:40:37;;;;;;;;;13.50;13.25;;;;;-147.17;100.00;50318.41;5013840;28;51062;-67
2022/02/04 01:43:03;;;;;;;;;15.50;14.00;;;;;-147.17;100.00;50332.19;5014288;28;51076;-65
2022/02/04 01:45:28;;;;;;;;;15.50;14.50;;;;;-147.17;100.00;50273.16;5015800;28;50853;-66
2022/02/04 01:47:55;;;;;;;;;12.75;12.25;;;;;-147.17;100.00;50314.47;5013112;28;52720;-67
2022/02/04 01:50:24;;;;;;;;;14.25;12.75;;;;;-147.17;100.00;50308.59;5014409;28;51149;-67
2022/02/04 01:52:50;;;;;;;;;14.50;13.50;;;;;-147.17;100.00;50334.16;4996069;28;51613;-66
2022/02/04 01:55:17;;;;;;;;;20.75;16.75;;;;;-147.17;100.00;50308.59;5013263;28;51153;-67
2022/02/04 01:57:42;;;;;;;;;14.75;14.00;;;;;-147.17;100.00;50316.44;4997415;28;53025;-68
2022/02/04 02:00:09;;;;;;;;;13.25;10.75;;;;;-147.17;100.00;50316.44;4994617;28;50890;-68
2022/02/04 02:02:34;;;;;;;;;14.00;13.75;;;;;-147.17;100.00;50316.44;5006920;28;51087;-65
2022/02/04 02:05:00;;;;;;;;;16.75;15.00;;;;;-147.17;100.00;50324.31;5016523;28;51147;-67
2022/02/04 02:07:27;;;;;;;;;13.00;11.00;;;;;-147.17;100.00;50306.63;5016220;28;51871;-66
2022/02/04 02:10:01;;;;;;;;;17.50;15.25;;;;;-147.17;100.00;50283.00;5017869;28;51045;-66
2022/02/04 02:12:32;;;;;;;;;14.25;11.50;;;;;-147.17;100.00;50324.31;5016081;28;50956;-66
2022/02/04 02:15:13;;;;;;;;;14.50;12.75;;;;;-147.17;100.00;50320.38;5011349;28;51148;-66
2022/02/04 02:48:36;;;;;;;;;14.75;12.00;;;;;-147.17;100.00;50275.13;5016702;28;50993;-65
2022/02/04 02:58:30;;;;;;;;;14.25;12.25;;;;;-147.17;100.00;50316.44;5011709;28;51170;-67
2022/02/04 03:01:07;;;;;;;;;10.50;8.75;;;;;-147.17;100.00;50277.09;5009848;28;51204;-68
2022/02/04 03:03:35;;;;;;;;;12.25;11.00;;;;;-147.17;100.00;50273.16;5010913;28;51204;-67
2022/02/04 03:06:00;;;;;;;;;10.25;9.25;;;;;-147.17;100.00;50269.22;5011333;28;51153;-67
2022/02/04 03:08:27;;;;;;;;;9.50;8.00;;;;;-147.17;100.00;50265.28;5010283;28;51167;-67
2022/02/04 03:10:54;;;;;;;;;8.50;8.50;;;;;-147.17;100.00;50247.56;5010769;28;52631;-67
2022/02/04 03:13:27;;;;;;;;;11.50;9.50;;;;;-147.17;100.00;50249.53;5011210;28;50979;-67
2022/02/04 03:16:03;;;;;;;;;9.25;9.25;;;;;-147.17;100.00;50259.38;5010401;28;51280;-67
2022/02/04 03:18:31;;;;;;;;;6.25;6.25;;;;;-147.17;100.00;50273.16;4991636;28;51179;-67
2022/02/04 03:21:03;;;;;;;;;10.50;9.75;;;;;-147.17;100.00;50253.47;5011387;28;51085;-65
2022/02/04 03:23:31;;;;;;;;;9.50;9.50;;;;;-147.17;100.00;50202.28;5004526;28;51254;-66
2022/02/04 03:26:05;;;;;;;;;8.00;8.00;;;;;-147.17;100.00;50229.84;5009606;28;51295;-65
2022/02/04 03:28:31;;;;;;;;;7.00;7.00;;;;;-147.17;100.00;50192.44;4992838;28;51333;-66
2022/02/04 03:30:58;;;;;;;;;11.00;10.00;;;;;-147.17;100.00;50231.81;5000467;28;51695;-66
2022/02/04 03:33:26;;;;;;;;;9.50;8.50;;;;;-147.17;100.00;50229.84;5007783;28;51188;-66
2022/02/04 03:35:52;;;;;;;;;8.50;8.00;;;;;-147.17;100.00;50229.84;5010969;28;51133;-66
2022/02/04 03:38:17;;;;;;;;;11.75;8.00;;;;;-147.17;100.00;50225.91;5011174;28;51771;-67
2022/02/04 03:40:43;;;;;;;;;8.00;6.50;;;;;-147.17;100.00;50218.03;5011057;28;52040;-67
2022/02/04 03:43:08;;;;;;;;;8.75;8.75;;;;;-147.17;100.00;50202.28;4992252;28;51349;-66
2022/02/04 03:45:34;;;;;;;;;12.50;9.25;;;;;-147.17;100.00;50206.22;5009769;28;51003;-66
2022/02/04 03:48:00;;;;;;;;;10.00;8.00;;;;;-147.17;100.00;50225.91;4990341;28;52367;-65
2022/02/04 03:50:26;;;;;;;;;6.50;5.00;;;;;-147.17;100.00;50221.97;5013448;28;51110;-66
2022/02/04 03:52:51;;;;;;;;;8.50;8.00;;;;;-147.17;100.00;50198.34;5013755;28;51031;-66
2022/02/04 03:55:17;;;;;;;;;10.00;8.75;;;;;-147.17;100.00;50210.16;5013121;28;51798;-68
2022/02/04 03:57:42;;;;;;;;;11.75;10.50;;;;;-147.17;100.00;50170.78;4996427;28;52776;-69
2022/02/04 04:00:10;;;;;;;;;11.75;9.25;;;;;-147.17;100.00;50223.94;5012368;28;53859;-65
2022/02/04 04:02:36;;;;;;;;;9.50;8.75;;;;;-147.17;100.00;50221.97;5013160;28;51043;-65
2022/02/04 04:05:02;;;;;;;;;12.25;11.00;;;;;-147.17;100.00;50153.06;5012945;28;50991;-65
2022/02/04 04:07:29;;;;;;;;;14.75;13.50;;;;;-147.17;100.00;50162.91;4996500;28;51289;-65
2022/02/04 04:10:01;;;;;;;;;12.25;10.00;;;;;-147.17;100.00;50190.47;5013519;28;51105;-66
2022/02/04 04:12:27;;;;;;;;;8.25;8.25;;;;;-147.17;100.00;50206.22;5009445;28;51169;-65
2022/02/04 04:14:55;;;;;;;;;17.50;13.00;;;;;-147.17;100.00;50235.75;4997890;28;51109;-65
2022/02/04 04:17:20;;;;;;;;;15.75;13.50;;;;;-147.17;100.00;50218.03;5012904;28;51145;-65
2022/02/04 04:19:46;;;;;;;;;13.00;12.00;;;;;-147.17;100.00;50192.44;5014643;28;51852;-65
2022/02/04 04:22:11;;;;;;;;;15.00;14.00;;;;;-147.17;100.00;50162.91;5011413;28;51117;-66
2022/02/04 04:24:37;;;;;;;;;13.25;12.25;;;;;-147.17;100.00;50196.38;5013864;28;51054;-65
2022/02/04 04:27:02;;;;;;;;;16.75;15.25;;;;;-147.17;100.00;50170.78;5013747;28;51110;-65
2022/02/04 04:29:28;;;;;;;;;16.75;13.25;;;;;-147.17;100.00;50196.38;5010790;28;52436;-66
2022/02/04 04:31:53;;;;;;;;;17.75;14.75;;;;;-147.17;100.00;50192.44;5010002;28;51241;-64
2022/02/04 04:34:19;;;;;;;;;16.00;14.50;;;;;-147.17;100.00;50174.72;5013700;28;51153;-66
2022/02/04 04:36:44;;;;;;;;;14.25;12.75;;;;;-147.17;100.00;50184.56;5009001;28;51404;-66
2022/02/04 04:39:25;;;;;;;;;18.00;18.00;;;;;-147.17;100.00;50182.59;5012660;28;51828;-65
2022/02/04 05:28:54;;;;;;;;;18.00;17.75;;;;;-147.17;100.00;50129.44;4914795;28;51202;-65
2022/02/04 05:31:14;;;;;;;;;21.50;18.75;;;;;-147.17;100.00;50158.97;4932798;28;51513;-65
2022/02/04 05:33:39;;;;;;;;;19.50;17.75;;;;;-147.17;100.00;50174.72;4978523;28;50998;-65
2022/02/04 05:36:07;;;;;;;;;19.50;16.00;;;;;-147.17;100.00;50170.78;4994174;28;51122;-65
2022/02/04 05:38:34;;;;;;;;;20.50;17.00;;;;;-147.17;100.00;50164.88;5008494;28;51755;-65
2022/02/04 05:40:59;;;;;;;;;19.25;18.25;;;;;-147.17;100.00;50162.91;5012455;28;51082;-65
2022/02/04 05:43:29;;;;;;;;;11.25;10.25;;;;;-147.17;100.00;50143.22;5010113;28;51694;-65
2022/02/04 05:48:21;;;;;;;;;18.25;17.00;;;;;-147.17;100.00;50180.63;5012374;28;51232;-65
2022/02/04 05:50:59;;;;;;;;;18.75;17.75;;;;;-147.17;100.00;50137.31;4994070;28;51535;-64
2022/02/04 05:53:32;;;;;;;;;18.00;14.75;;;;;-147.17;100.00;50162.91;5010712;28;51840;-65
2022/02/04 05:56:08;;;;;;;;;17.75;15.50;;;;;-147.17;100.00;50151.09;5010191;28;51132;-66
2022/02/04 05:58:42;;;;;;;;;16.75;16.00;;;;;-147.17;100.00;50168.81;5011564;28;51119;-65
2022/02/04 06:11:47;;;;;;;;;23.50;21.25;;;;;-147.17;100.00;50162.91;5008670;28;51519;-65
2022/02/04 06:22:23;;;;;;;;;21.25;19.50;;;;;-147.17;100.00;50178.66;5010459;28;51560;-65
2022/02/04 06:24:51;;;;;;;;;20.00;18.25;;;;;-147.17;100.00;50131.41;5010105;28;52517;-66
2022/02/04 06:27:23;;;;;;;;;16.50;15.50;;;;;-147.17;100.00;50158.97;5011290;28;51106;-65
2022/02/04 06:29:50;;;;;;;;;18.25;16.50;;;;;-147.17;100.00;50143.22;5009495;28;51320;-65
2022/02/04 06:32:17;;;;;;;;;23.00;20.00;;;;;-147.17;100.00;50151.09;4991896;28;51013;-65
2022/02/04 06:34:43;;;;;;;;;20.50;18.75;;;;;-147.17;100.00;50135.34;5009629;28;50991;-65
2022/02/04 06:37:08;;;;;;;;;19.50;17.25;;;;;-147.17;100.00;50117.63;5010807;28;51113;-65
2022/02/04 06:39:34;;;;;;;;;19.00;17.50;;;;;-147.17;100.00;50157.00;5011356;28;51059;-65
2022/02/04 06:41:59;;;;;;;;;18.75;17.75;;;;;-147.17;100.00;50137.31;5010349;28;51059;-67
2022/02/04 06:44:25;;;;;;;;;23.50;22.25;;;;;-147.17;100.00;50172.75;5011166;28;51987;-65
2022/02/04 06:46:50;;;;;;;;;21.00;19.50;;;;;-147.17;100.00;50166.84;4994228;28;51052;-65
2022/02/04 06:49:16;;;;;;;;;19.25;18.00;;;;;-147.17;100.00;50127.47;5007010;28;51046;-64
2022/02/04 06:51:41;;;;;;;;;19.75;16.75;;;;;-147.17;100.00;50123.53;5006502;28;51114;-65
2022/02/04 06:54:09;;;;;;;;;23.75;19.50;;;;;-147.17;100.00;50160.94;5012092;28;51867;-66
2022/02/04 06:56:36;;;;;;;;;17.75;17.75;;;;;-147.17;100.00;50166.84;5009063;28;51013;-65
2022/02/04 06:59:04;;;;;;;;;19.50;16.00;;;;;-147.17;100.00;50178.66;5006801;28;51072;-65
2022/02/04 07:01:31;;;;;;;;;22.00;20.25;;;;;-147.17;100.00;50147.16;4990727;28;51107;-65
2022/02/04 07:03:57;;;;;;;;;19.00;17.75;;;;;-147.17;100.00;50151.09;5010112;28;51899;-65
2022/02/04 07:06:22;;;;;;;;;23.25;20.25;;;;;-147.17;100.00;50149.13;4990700;28;52751;-65
2022/02/04 07:11:41;;;;;;;;;22.00;19.25;;;;;-147.17;100.00;50129.44;5006600;28;51101;-65
2022/02/04 07:16:42;;;;;;;;;23.75;20.25;;;;;-147.17;100.00;50143.22;5008335;28;51123;-65
2022/02/04 07:22:05;;;;;;;;;23.25;18.50;;;;;-147.17;100.00;50107.78;4969312;28;51107;-65
2022/02/04 07:24:31;;;;;;;;;24.25;20.00;;;;;-147.17;100.00;50119.59;5012411;28;52622;-63
2022/02/04 07:26:56;;;;;;;;;19.00;19.00;;;;;-147.17;100.00;50103.84;5006947;28;51197;-65
2022/02/04 07:29:21;;;;;;;;;24.50;21.25;;;;;-147.17;100.00;50135.34;5011808;28;51081;-64
2022/02/04 07:31:48;;;;;;;;;21.00;19.75;;;;;-147.17;100.00;50131.41;5006928;28;51145;-66
2022/02/04 07:42:26;;;;;;;;;25.25;20.00;;;;;-147.17;100.00;50139.28;5015695;28;51017;-64
2022/02/04 07:44:51;;;;;;;;;23.50;20.00;;;;;-147.17;100.00;50133.38;5013530;28;51026;-64
2022/02/04 07:47:17;;;;;;;;;28.00;24.75;;;;;-147.17;100.00;50141.25;4984207;28;51130;-64
2022/02/04 07:49:42;;;;;;;;;23.75;21.25;;;;;-147.17;100.00;50151.09;5014100;28;51091;-64
2022/02/04 07:52:08;;;;;;;;;23.00;20.25;;;;;-147.17;100.00;50139.28;5013830;28;51320;-64
2022/02/04 07:54:33;;;;;;;;;19.00;18.00;;;;;-147.17;100.00;50143.22;5014085;28;51742;-64
2022/02/04 07:56:59;;;;;;;;;20.75;19.50;;;;;-147.17;100.00;50151.09;5014790;28;50881;-64
2022/02/04 07:59:24;;;;;;;;;17.00;16.50;;;;;-147.17;100.00;50131.41;5015021;28;51048;-64
2022/02/04 08:01:49;;;;;;;;;20.00;20.00;;;;;-147.17;100.00;50145.19;4999561;28;51278;-65
2022/02/04 08:04:20;;;;;;;;;21.25;19.75;;;;;-147.17;100.00;50166.84;5012802;28;51618;-64
2022/02/04 08:06:52;;;;;;;;;21.75;21.25;;;;;-147.17;100.00;50155.03;5011891;28;51594;-64
2022/02/04 08:20:31;;;;;;;;;16.50;15.25;;;;;-147.17;100.00;50164.88;5010859;28;51153;-64
2022/02/04 08:30:44;;;;;;;;;17.00;15.75;;;;;-147.17;100.00;50184.56;5011031;28;51201;-64
2022/02/04 08:36:12;;;;;;;;;16.00;15.00;;;;;-147.17;100.00;50170.78;5015134;28;51153;-65
2022/02/04 08:52:07;;;;;;;;;18.50;16.75;;;;;-147.17;100.00;50221.97;5012063;28;51120;-64
2022/02/04 08:57:03;;;;;;;;;16.50;16.25;;;;;-147.17;100.00;50200.31;5009019;28;51751;-64
2022/02/04 08:59:40;;;;;;;;;15.00;15.00;;;;;-147.17;100.00;50229.84;5010026;28;51045;-65
2022/02/04 09:02:17;;;;;;;;;14.50;13.75;;;;;-147.17;100.00;50245.59;5013147;28;51150;-63
2022/02/04 09:04:47;;;;;;;;;14.50;13.75;;;;;-147.17;100.00;50249.53;5010697;28;51288;-64
2022/02/04 09:07:15;;;;;;;;;20.25;16.50;;;;;-147.17;100.00;50243.63;5013723;28;52163;-63
2022/02/04 09:09:51;;;;;;;;;19.75;18.00;;;;;-147.17;100.00;50225.91;5013730;28;51100;-63
2022/02/04 09:16:56;;;;;;;;;20.00;17.25;;;;;-147.17;100.00;50216.06;5007474;28;51370;-64
2022/02/04 09:23:25;;;;;;;;;11.00;10.25;;;;;-147.17;100.00;50221.97;5016075;28;51355;-65
2022/02/04 09:25:51;;;;;;;;;17.00;15.25;;;;;-147.17;100.00;50263.31;5018095;28;51135;-65
2022/02/04 09:28:16;;;;;;;;;16.75;15.75;;;;;-147.17;100.00;50277.09;5017556;28;51889;-66
2022/02/04 09:30:42;;;;;;;;;17.25;17.25;;;;;-147.17;100.00;50284.97;5018589;28;50885;-70
2022/02/04 09:33:07;;;;;;;;;12.50;10.00;;;;;-147.17;100.00;50257.41;5018387;28;51207;-70
2022/02/04 09:35:33;;;;;;;;;13.50;12.50;;;;;-147.17;100.00;50257.41;5000728;28;51131;-70
2022/02/04 09:37:58;;;;;;;;;16.00;14.75;;;;;-147.17;100.00;50227.88;4997715;28;53062;-69
2022/02/04 09:40:24;;;;;;;;;14.00;11.50;;;;;-147.17;100.00;50298.75;5018348;28;51034;-70
2022/02/04 09:42:50;;;;;;;;;14.00;13.75;;;;;-147.17;100.00;50273.16;5015967;28;51076;-70
2022/02/04 09:45:19;;;;;;;;;15.00;12.25;;;;;-147.17;100.00;50267.25;5016284;28;51133;-70
2022/02/04 09:47:55;;;;;;;;;14.00;12.75;;;;;-147.17;100.00;50283.00;5023435;28;52175;-74
2022/02/04 09:50:23;;;;;;;;;12.00;10.50;;;;;-147.17;100.00;50263.31;5019217;28;51007;-73
2022/02/04 10:04:54;;;;;;;;;15.25;15.25;;;;;-147.17;100.00;50314.47;5015993;28;51155;-72
2022/02/04 10:15:17;;;;;;;;;15.50;13.50;;;;;-147.17;100.00;50324.31;5000266;28;51077;-66
2022/02/04 10:18:10;;;;;;;;;10.75;10.50;;;;;-147.17;100.00;50257.41;4995686;28;51114;-66
2022/02/04 10:20:38;;;;;;;;;10.00;10.00;;;;;-147.17;100.00;50269.22;5004157;28;51118;-66
2022/02/04 10:23:04;;;;;;;;;11.00;8.75;;;;;-147.17;100.00;50263.31;4993288;28;51162;-66
2022/02/04 10:25:38;;;;;;;;;10.00;10.00;;;;;-147.17;100.00;50284.97;5011571;28;51038;-66
2022/02/04 10:28:21;;;;;;;;;10.25;10.00;;;;;-147.17;100.00;50286.94;4993662;28;51818;-66
2022/02/04 10:31:02;;;;;;;;;10.00;9.00;;;;;-147.17;100.00;50257.41;5008591;28;51284;-67
2022/02/04 10:33:28;;;;;;;;;10.75;10.00;;;;;-147.17;100.00;50300.72;5010888;28;51240;-66
2022/02/04 10:35:53;;;;;;;;;8.50;8.50;;;;;-147.17;100.00;50336.13;5010322;28;50952;-66
2022/02/04 10:38:26;;;;;;;;;12.00;10.00;;;;;-147.17;100.00;50312.53;5011113;28;51201;-67
2022/02/04 10:41:07;;;;;;;;;8.00;7.50;;;;;-147.17;100.00;50351.88;5009935;28;52890;-65
2022/02/04 10:49:59;;;;;;;;;9.25;8.50;;;;;-147.17;100.00;50347.94;5011167;28;51168;-67
2022/02/04 11:02:55;;;;;;;;;9.50;9.50;;;;;-147.17;100.00;50328.25;5011143;28;52007;-66
2022/02/04 11:35:06;;;;;;;;;9.00;8.00;;;;;-147.17;100.00;50405.03;5011276;28;50981;-67
2022/02/04 11:44:22;;;;;;;;;6.00;5.33;;;;;-147.17;100.00;50473.94;5010813;28;51102;-67
2022/02/04 11:55:15;;;;;;;;;8.00;8.00;;;;;-147.17;100.00;50475.91;5011527;28;51098;-69
2022/02/04 11:57:55;;;;;;;;;8.67;8.67;;;;;-147.17;100.00;50438.50;4992789;28;53932;-67
2022/02/04 12:00:24;;;;;;;;;5.00;5.00;;;;;-147.17;100.00;50430.63;5023150;28;51275;-68
2022/02/04 12:02:52;;;;;;;;;5.00;5.00;;;;;-147.17;100.00;50517.25;5001987;28;51186;-67
2022/02/04 12:05:17;;;;;;;;;8.67;8.33;;;;;-147.17;100.00;50525.13;5011461;28;51295;-68
2022/02/04 12:07:44;;;;;;;;;11.67;10.33;;;;;-147.17;100.00;50566.47;4993479;28;52079;-69
2022/02/04 12:10:12;;;;;;;;;5.00;4.67;;;;;-147.17;100.00;50590.09;5013524;28;51081;-68
2022/02/04 12:12:56;;;;;;;;;7.67;6.00;;;;;-147.17;100.00;50570.41;5014568;28;51186;-68
2022/02/04 12:15:30;;;;;;;;;8.00;6.33;;;;;-147.17;100.00;50627.50;4995787;28;50870;-68
2022/02/04 12:17:56;;;;;;;;;4.67;4.00;;;;;-147.17;100.00;50615.69;5026332;28;53556;-68
2022/02/04 12:20:50;;;;;;;;;4.00;4.00;;;;;-147.17;100.00;50659.00;5014940;28;51099;-68
2022/02/04 12:23:28;;;;;;;;;6.67;6.67;;;;;-147.17;100.00;50670.81;5014440;28;51072;-69
2022/02/04 12:26:08;;;;;;;;;5.00;5.00;;;;;-147.17;100.00;50698.38;5014584;28;50978;-64
2022/02/04 12:29:05;;;;;;;;;6.00;5.67;;;;;-147.17;100.00;50666.88;5012928;28;50944;-63
2022/02/04 12:31:32;;;;;;;;;4.00;4.00;;;;;-147.17;100.00;50631.44;4994970;28;51323;-62
2022/02/04 12:34:00;;;;;;;;;6.00;5.00;;;;;-147.17;100.00;50627.50;5014738;28;51161;-60
2022/02/04 12:36:35;;;;;;;;;7.00;5.00;;;;;-147.17;100.00;50702.31;5014610;28;51162;-60
2022/02/04 12:39:12;;;;;;;;;28.25;25.25;;;;;-147.17;100.00;50735.78;5014457;28;50951;-60
2022/02/04 12:41:41;;;;;;;;;52.00;44.00;;;;;-147.17;100.00;50718.06;5015023;28;50972;-62
2022/02/04 12:44:11;;;;;;;;;14.25;14.25;;;;;-147.17;100.00;50718.06;5013904;28;50968;-61
2022/02/04 12:46:41;;;;;;;;;5.00;5.00;;;;;-147.17;99.81;50753.50;5009049;28;51182;-61
2022/02/04 12:49:12;;;;;;;;;5.00;4.00;;;;;-147.17;97.43;50808.63;5014572;28;51011;-60
2022/02/04 12:51:51;;;;;;;;;5.00;5.00;;;;;-147.17;97.50;50800.75;4997410;28;50994;-61
2022/02/04 12:54:33;;;;;;;;;4.00;4.00;;;;;-147.17;96.42;50836.19;5013932;28;50917;-62
2022/02/04 12:58:12;;;;;;;;;2.00;2.00;;;;;-147.17;96.24;50814.53;5014233;28;51306;-61
2022/02/04 13:00:20;;;;;;;;;4.00;4.00;;;;;-147.17;95.63;50798.78;4999737;28;51127;-60
2022/02/04 13:08:14;;;;;;;;;2.33;2.33;;;;;-147.17;90.15;50863.75;4997826;28;51225;-61
2022/02/04 13:10:41;;;;;;;;;3.00;3.00;;;;;-147.17;90.07;50846.03;5000756;28;51733;-61
2022/02/04 13:13:11;;;;;;;;;1.33;1.33;;;;;-147.17;87.01;50879.50;5013572;28;51120;-61
2022/02/04 13:15:38;;;;;;;;;2.00;2.00;;;;;-147.17;89.14;50861.78;5013602;28;51026;-60
2022/02/04 13:18:09;;;;;;;;;3.33;3.33;;;;;-147.17;91.31;50806.66;4996004;28;51249;-61
2022/02/04 13:20:36;;;;;;;;;3.33;3.00;;;;;-147.17;92.23;50822.41;5011887;28;51718;-60
2022/02/04 13:23:30;;;;;;;;;5.33;4.00;;;;;-147.17;92.51;50812.56;5010754;28;51150;-59
2022/02/04 13:26:05;;;;;;;;;4.33;4.33;;;;;-147.17;94.44;50818.47;5012341;28;51188;-64
2022/02/04 13:28:42;;;;;;;;;3.00;3.00;;;;;-147.17;93.84;50786.97;5012736;28;51177;-59
2022/02/04 13:31:13;;;;;;;;;5.00;4.33;;;;;-147.17;95.00;50769.25;5011249;28;52128;-60
2022/02/04 13:33:39;;;;;;;;;3.67;3.00;;;;;-147.17;95.08;50745.63;5013145;28;51072;-61
2022/02/04 13:44:13;;;;;;;;;5.00;3.33;;;;;-147.17;96.27;50753.50;5010933;28;51054;-60
2022/02/04 13:46:32;;;;;;;;;5.67;4.00;;;;;-147.17;96.16;50718.06;5020073;28;51114;-60
2022/02/04 13:49:18;;;;;;;;;2.00;2.00;;;;;-147.17;95.54;50759.41;5012726;28;51120;-60
2022/02/04 13:52:10;;;;;;;;;2.00;2.00;;;;;-147.17;94.10;50761.38;5013006;28;51712;-60
2022/02/04 13:57:42;;;;;;;;;3.00;2.33;;;;;-147.17;96.71;50733.81;5012967;28;50956;-60
2022/02/04 14:00:31;;;;;;;;;1.00;0.00;;;;;-147.17;97.85;50706.25;4997466;28;51197;-60
2022/02/04 14:03:09;;;;;;;;;2.00;2.00;;;;;-147.17;96.90;50710.19;5012879;28;50928;-61
2022/02/04 14:05:40;;;;;;;;;2.00;2.00;;;;;-147.17;96.86;50698.38;4995240;28;51085;-61
2022/02/04 14:08:13;;;;;;;;;2.33;2.33;;;;;-147.17;97.39;50723.97;4994754;28;51193;-59
2022/02/04 14:10:50;;;;;;;;;2.00;1.33;;;;;-147.17;97.57;50698.38;4995113;28;51344;-61
2022/02/04 14:13:21;;;;;;;;;2.00;2.00;;;;;-147.17;96.38;50722.00;5011198;28;51174;-62
2022/02/04 14:15:51;;;;;;;;;3.00;2.33;;;;;-147.17;97.23;50704.28;5004390;28;51039;-60
2022/02/04 14:18:17;;;;;;;;;1.00;1.00;;;;;-147.17;97.82;50676.72;5012758;28;50929;-59
2022/02/04 14:20:44;;;;;;;;;3.00;1.00;;;;;-147.17;98.87;50678.69;5011294;28;51046;-60
2022/02/04 14:23:11;;;;;;;;;4.00;2.33;;;;;-147.17;99.14;50674.75;5012163;28;51277;-61
2022/02/04 14:28:43;;;;;;;;;1.00;1.00;;;;;-147.17;97.67;50722.00;5011975;28;51176;-60
2022/02/04 14:31:34;;;;;;;;;2.00;2.00;;;;;-147.17;98.69;50686.56;5012347;28;51019;-60
2022/02/04 14:34:55;;;;;;;;;3.00;2.00;;;;;-147.17;99.29;50672.78;5012695;28;51008;-61
2022/02/04 15:00:49;;;;;;;;;2.00;2.00;;;;;-147.17;100.00;50501.50;5012392;28;51129;-61
2022/02/04 15:03:24;;;;;;;;;6.33;3.00;;;;;-147.17;100.00;50525.13;5012238;28;50992;-60
2022/02/04 15:06:01;;;;;;;;;1.00;1.00;;;;;-147.17;100.00;50497.56;5012025;28;52216;-60
2022/02/04 15:08:28;;;;;;;;;1.67;1.67;;;;;-147.17;100.00;50430.63;5011891;28;51063;-61
2022/02/04 15:10:55;;;;;;;;;1.00;1.00;;;;;-147.17;100.00;50493.63;5012209;28;50871;-59
2022/02/04 15:13:21;;;;;;;;;3.00;3.00;;;;;-147.17;100.00;50495.59;5010088;28;52669;-61
2022/02/04 15:15:46;;;;;;;;;1.00;1.00;;;;;-147.17;100.00;50495.59;5004641;28;53559;-61
2022/02/04 15:18:14;;;;;;;;;1.67;1.67;;;;;-147.17;100.00;50468.03;5012044;28;51101;-60
2022/02/04 15:20:40;;;;;;;;;2.00;2.00;;;;;-147.17;100.00;50505.44;4994874;28;51112;-60
2022/02/04 15:23:08;;;;;;;;;1.33;1.33;;;;;-147.17;100.00;50444.41;5012131;28;51268;-60
2022/02/04 15:25:34;;;;;;;;;3.33;3.33;;;;;-147.17;100.00;50466.06;5010959;28;51231;-61
2022/02/04 15:28:25;;;;;;;;;11.00;6.67;;;;;-147.17;100.00;50450.31;5010674;28;50997;-59
2022/02/04 15:30:54;;;;;;;;;1.00;1.00;;;;;-147.17;100.00;50442.44;5001331;28;51025;-59
2022/02/04 15:33:20;;;;;;;;;0.33;0.33;;;;;-147.17;100.00;50487.72;5011788;28;51362;-62
2022/02/04 15:35:46;;;;;;;;;1.00;1.00;;;;;-147.17;100.00;50462.13;5011499;28;51288;-61
2022/02/04 15:38:12;;;;;;;;;2.00;1.00;;;;;-147.17;100.00;50438.50;5011824;28;50916;-60
2022/02/04 15:40:42;;;;;;;;;2.00;1.00;;;;;-147.17;100.00;50450.31;5012267;28;51107;-59
2022/02/04 15:43:08;;;;;;;;;0.00;0.00;;;;;-147.17;100.00;50438.50;4994208;28;51047;-61
2022/02/04 16:01:29;;;;;;;;;2.00;2.00;;;;;-147.17;100.00;50470.00;5010118;28;51066;-60
2022/02/04 16:04:01;;;;;;;;;3.00;3.00;;;;;-147.17;100.00;50493.63;5014330;28;51248;-61
2022/02/04 16:06:27;;;;;;;;;3.00;2.33;;;;;-147.17;100.00;50505.44;5013692;28;51258;-60
2022/02/04 16:08:55;;;;;;;;;3.00;3.00;;;;;-147.17;100.00;50515.28;5014633;28;50940;-61
2022/02/04 16:16:57;;;;;;;;;1.00;1.00;;;;;-147.17;100.00;50495.59;5010356;28;52568;-60
2022/02/04 16:22:18;;;;;;;;;1.00;0.33;;;;;-147.17;100.00;50493.63;5009984;28;51119;-61
2022/02/04 16:28:37;;;;;;;;;1.00;1.00;;;;;-147.17;100.00;50527.09;5012903;28;51778;-60
2022/02/04 16:29:55;;;;;;;;;2.00;1.00;;;;;-147.17;100.00;50527.09;5013705;28;51187;-61
2022/02/04 16:32:20;;;;;;;;;1.00;1.00;;;;;-147.17;100.00;50533.00;5014288;28;51134;-60
2022/02/04 16:34:56;;;;;;;;;1.67;1.67;;;;;-147.17;100.00;50515.28;4996190;28;51264;-61
2022/02/04 16:37:32;;;;;;;;;2.67;2.67;;;;;-147.17;100.00;50525.13;5014238;28;51022;-60
2022/02/04 16:40:00;;;;;;;;;1.00;1.00;;;;;-147.17;100.00;50548.75;5013432;28;50991;-60
2022/02/04 16:42:27;;;;;;;;;1.67;1.67;;;;;-147.17;100.00;50564.50;5014296;28;51099;-60
2022/02/04 16:44:53;;;;;;;;;1.33;1.00;;;;;-147.17;100.00;50552.69;5013457;28;51248;-60
2022/02/04 16:47:18;;;;;;;;;2.00;2.00;;;;;-147.17;100.00;50548.75;5011593;28;51778;-61
2022/02/04 16:49:44;;;;;;;;;1.00;1.00;;;;;-147.17;100.00;50529.06;5002575;28;51101;-61
2022/02/04 16:52:10;;;;;;;;;2.00;2.00;;;;;-147.17;100.00;50607.81;5014088;28;51007;-61
2022/02/04 16:54:35;;;;;;;;;0.00;0.00;;;;;-147.17;100.00;50572.38;5012365;28;51832;-61
2022/02/04 16:57:02;;;;;;;;;3.00;3.00;;;;;-147.17;100.00;50609.78;5013043;28;51283;-60
2022/02/04 16:59:28;;;;;;;;;2.00;2.00;;;;;-147.17;100.00;50611.75;4996063;28;51043;-60
2022/02/04 17:01:54;;;;;;;;;2.00;2.00;;;;;-147.17;100.00;50572.38;5014050;28;50877;-61
2022/02/04 17:04:19;;;;;;;;;2.00;2.00;;;;;-147.17;100.00;50564.50;5013414;28;51242;-61
2022/02/04 17:06:49;;;;;;;;;2.67;1.67;;;;;-147.17;100.00;50572.38;5013239;28;51898;-60
2022/02/04 17:11:43;;;;;;;;;2.00;1.67;;;;;-147.17;99.53;50566.47;5013409;28;51030;-61
2022/02/04 17:14:09;;;;;;;;;2.33;1.67;;;;;-147.17;100.00;50592.06;5013383;28;51285;-59
2022/02/04 17:16:34;;;;;;;;;1.00;1.00;;;;;-147.17;99.41;50576.31;5009906;28;51218;-60
2022/02/04 17:19:00;;;;;;;;;1.00;1.00;;;;;-147.17;99.48;50615.69;5013787;28;51007;-61
2022/02/04 17:21:29;;;;;;;;;2.00;2.00;;;;;-147.17;100.00;50560.56;5012850;28;51305;-62
2022/02/04 17:23:55;;;;;;;;;2.00;2.00;;;;;-147.17;100.00;50556.63;5012351;28;51326;-60
2022/02/04 17:26:22;;;;;;;;;2.00;2.00;;;;;-147.17;99.37;50568.44;5012463;28;51867;-61
2022/02/04 17:28:48;;;;;;;;;9.75;8.75;;;;;-147.17;100.00;50548.75;5012014;28;51187;-60
2022/02/04 17:31:14;;;;;;;;;3.00;3.00;;;;;-147.17;100.00;50568.44;5013107;28;51079;-60
2022/02/04 17:33:40;;;;;;;;;2.67;2.67;;;;;-147.17;100.00;50580.25;5013192;28;50786;-61
2022/02/04 17:36:06;;;;;;;;;3.00;3.00;;;;;-147.17;100.00;50564.50;5013121;28;50930;-61
2022/02/04 17:38:32;;;;;;;;;5.00;4.00;;;;;-147.17;100.00;50564.50;5012597;28;50904;-60